createdAt,value
2019-01-31T00:01:10.561Z,39.48
2019-01-31T00:04:02.340Z,39.33
2019-01-31T00:07:04.924Z,37.78
2019-01-31T00:09:55.251Z,39.38
2019-01-31T00:13:01.784Z,39.90
2019-01-31T00:15:46.668Z,38.65
2019-01-31T00:18:32.327Z,41.63
2019-01-31T00:21:21.128Z,39.93
2019-01-31T00:24:12.521Z,42.48
2019-01-31T00:27:38.235Z,40.10
2019-01-31T00:30:59.729Z,39.67
2019-01-31T00:33:47.941Z,41.30
2019-01-31T00:36:30.639Z,39.27
2019-01-31T00:39:43.293Z,38.35
2019-01-31T00:42:40.666Z,41.08
2019-01-31T00:45:29.331Z,38.53
2019-01-31T00:48:19.516Z,42.30
2019-01-31T00:51:02.600Z,40.52
2019-01-31T00:54:04.667Z,38.13
2019-01-31T00:56:59.859Z,40.40
2019-01-31T01:00:13.141Z,40.90
2019-01-31T01:02:55.844Z,39.20
2019-01-31T01:06:04.322Z,41.02
2019-01-31T01:08:39.594Z,40.85
2019-01-31T01:11:40.732Z,41.83
2019-01-31T01:14:46.310Z,40.00
2019-01-31T01:17:45.820Z,39.13
2019-01-31T01:20:31.857Z,38.95
2019-01-31T01:23:29.783Z,39.83
2019-01-31T01:26:23.779Z,40.58
2019-01-31T01:29:06.945Z,42.27
2019-01-31T01:32:23.188Z,42.80
2019-01-31T01:35:13.682Z,41.98
2019-01-31T01:38:13.451Z,38.75
2019-01-31T01:41:32.884Z,42.95
2019-01-31T01:44:31.568Z,39.80
2019-01-31T01:47:46.854Z,39.00
2019-01-31T01:50:49.838Z,40.80
2019-01-31T01:53:31.036Z,41.68
2019-01-31T01:56:37.321Z,43.00
2019-01-31T01:59:49.276Z,39.98
2019-01-31T02:03:10.901Z,40.78
2019-01-31T02:06:35.739Z,39.23
2019-01-31T02:09:54.182Z,41.00
2019-01-31T02:13:17.587Z,42.30
2019-01-31T02:16:10.211Z,40.30
2019-01-31T02:19:03.135Z,40.58
2019-01-31T02:21:56.155Z,39.75
2019-01-31T02:24:39.528Z,36.53
2019-01-31T02:27:46.557Z,41.25
2019-01-31T02:30:30.665Z,39.98
2019-01-31T02:33:28.759Z,40.83
2019-01-31T02:36:23.859Z,41.58
2019-01-31T02:39:20.815Z,41.50
2019-01-31T02:42:04.145Z,40.17
2019-01-31T02:44:50.927Z,40.75
2019-01-31T02:47:42.449Z,41.48
2019-01-31T02:50:23.634Z,36.95
2019-01-31T02:53:35.199Z,44.03
2019-01-31T02:56:29.799Z,38.28
2019-01-31T02:59:30.862Z,39.38
2019-01-31T03:02:18.646Z,41.05
2019-01-31T03:05:31.867Z,38.73
2019-01-31T03:08:27.247Z,37.48
2019-01-31T03:11:20.905Z,40.40
2019-01-31T03:14:10.332Z,39.33
2019-01-31T03:17:03.094Z,37.75
2019-01-31T03:19:56.760Z,39.78
2019-01-31T03:22:45.389Z,40.30
2019-01-31T03:26:04.731Z,40.30
2019-01-31T03:29:11.109Z,37.30
2019-01-31T03:32:21.033Z,42.03
2019-01-31T03:35:10.969Z,42.13
2019-01-31T03:38:16.444Z,37.70
2019-01-31T03:41:18.475Z,40.25
2019-01-31T03:44:24.849Z,37.57
2019-01-31T03:47:25.298Z,39.63
2019-01-31T03:50:08.991Z,38.78
2019-01-31T03:53:15.253Z,37.25
2019-01-31T03:56:16.290Z,35.92
2019-01-31T03:59:24.024Z,37.78
2019-01-31T04:02:03.202Z,40.12
2019-01-31T04:04:45.186Z,38.15
2019-01-31T04:07:14.012Z,35.50
2019-01-31T04:09:42.747Z,38.70
2019-01-31T04:12:11.790Z,36.55
2019-01-31T04:14:40.806Z,38.00
2019-01-31T04:17:09.495Z,40.12
2019-01-31T04:19:38.255Z,38.73
2019-01-31T04:22:07.026Z,36.40
2019-01-31T04:24:35.801Z,36.45
2019-01-31T04:27:04.718Z,36.30
2019-01-31T04:29:33.496Z,36.60
2019-01-31T04:32:02.229Z,36.28
2019-01-31T04:34:31.259Z,38.70
2019-01-31T04:37:00.284Z,37.88
2019-01-31T04:39:28.998Z,38.10
2019-01-31T04:41:57.825Z,38.73
2019-01-31T04:44:26.646Z,36.35
2019-01-31T04:46:55.566Z,35.65
2019-01-31T04:49:24.338Z,35.98
2019-01-31T04:51:53.104Z,38.65
2019-01-31T04:54:21.883Z,34.85
2019-01-31T04:56:50.668Z,38.38
2019-01-31T04:59:19.500Z,36.33
2019-01-31T05:01:48.320Z,35.50
2019-01-31T05:04:17.654Z,35.13
2019-01-31T05:06:46.467Z,35.88
2019-01-31T05:09:15.643Z,38.40
2019-01-31T05:11:44.388Z,35.65
2019-01-31T05:14:17.978Z,34.05
2019-01-31T05:16:46.736Z,35.35
2019-01-31T05:19:15.843Z,34.85
2019-01-31T05:21:44.747Z,35.65
2019-01-31T05:24:15.359Z,34.23
2019-01-31T05:26:44.151Z,33.88
2019-01-31T05:29:13.180Z,32.67
2019-01-31T05:31:42.128Z,34.58
2019-01-31T05:34:11.335Z,36.13
2019-01-31T05:36:40.654Z,33.78
2019-01-31T05:39:09.950Z,35.05
2019-01-31T05:41:38.755Z,33.92
2019-01-31T05:44:07.554Z,35.83
2019-01-31T05:46:37.619Z,33.40
2019-01-31T05:49:06.486Z,33.70
2019-01-31T05:51:35.282Z,31.65
2019-01-31T05:54:04.245Z,32.20
2019-01-31T05:56:33.219Z,32.65
2019-01-31T05:59:02.043Z,33.30
2019-01-31T06:01:30.943Z,33.35
2019-01-31T06:03:59.751Z,33.07
2019-01-31T06:06:28.780Z,32.40
2019-01-31T06:08:57.568Z,35.13
2019-01-31T06:11:26.617Z,32.60
2019-01-31T06:13:55.493Z,34.33
2019-01-31T06:16:24.276Z,31.17
2019-01-31T06:18:54.536Z,30.85
2019-01-31T06:21:23.633Z,31.02
2019-01-31T06:23:52.484Z,31.15
2019-01-31T06:26:21.260Z,30.02
2019-01-31T06:28:50.093Z,31.48
2019-01-31T06:31:18.871Z,32.42
2019-01-31T06:33:47.672Z,31.20
2019-01-31T06:36:16.927Z,30.55
2019-01-31T06:38:46.632Z,31.35
2019-01-31T06:41:18.620Z,31.02
2019-01-31T06:43:46.084Z,29.63
2019-01-31T06:46:15.216Z,29.30
2019-01-31T06:48:44.899Z,30.02
2019-01-31T06:51:13.674Z,30.60
2019-01-31T06:53:42.407Z,32.38
2019-01-31T06:56:11.286Z,31.93
2019-01-31T06:58:41.189Z,30.23
2019-01-31T07:01:10.249Z,30.17
2019-01-31T07:03:39.042Z,33.25
2019-01-31T07:06:07.767Z,33.75
2019-01-31T07:08:36.858Z,33.85
2019-01-31T07:11:06.071Z,31.80
2019-01-31T07:13:35.479Z,29.90
2019-01-31T07:16:04.468Z,34.00
2019-01-31T07:18:33.242Z,30.57
2019-01-31T07:21:02.277Z,30.77
2019-01-31T07:23:31.515Z,34.38
2019-01-31T07:26:00.570Z,32.03
2019-01-31T07:28:29.371Z,32.95
2019-01-31T07:30:58.493Z,32.03
2019-01-31T07:33:27.260Z,32.70
2019-01-31T07:35:56.049Z,34.18
2019-01-31T07:38:25.056Z,32.65
2019-01-31T07:40:53.790Z,31.00
2019-01-31T07:43:22.546Z,32.77
2019-01-31T07:45:51.595Z,32.97
2019-01-31T07:48:21.131Z,30.37
2019-01-31T07:50:50.468Z,30.27
2019-01-31T07:53:19.499Z,31.60
2019-01-31T07:55:50.232Z,32.70
2019-01-31T07:58:20.608Z,31.75
2019-01-31T08:00:52.514Z,30.85
2019-01-31T08:03:21.281Z,32.65
2019-01-31T08:05:50.449Z,31.60
2019-01-31T08:08:19.264Z,32.28
2019-01-31T08:10:48.003Z,29.10
2019-01-31T08:13:16.782Z,32.58
2019-01-31T08:15:45.563Z,30.82
2019-01-31T08:18:14.390Z,30.47
2019-01-31T08:20:43.134Z,31.47
2019-01-31T08:23:12.224Z,29.07
2019-01-31T08:25:41.266Z,30.08
2019-01-31T08:28:10.737Z,33.08
2019-01-31T08:30:41.603Z,31.90
2019-01-31T08:33:10.391Z,31.68
2019-01-31T08:35:39.418Z,29.10
2019-01-31T08:38:08.475Z,31.17
2019-01-31T08:40:37.250Z,31.40
2019-01-31T08:43:06.141Z,30.55
2019-01-31T08:45:35.013Z,29.60
2019-01-31T08:48:03.950Z,29.92
2019-01-31T08:50:32.800Z,31.00
2019-01-31T08:53:01.924Z,33.18
2019-01-31T08:55:30.664Z,30.75
2019-01-31T08:57:59.494Z,32.63
2019-01-31T09:00:29.762Z,29.35
2019-01-31T09:02:58.644Z,31.45
2019-01-31T09:05:27.557Z,28.90
2019-01-31T09:07:56.559Z,30.27
2019-01-31T09:10:30.821Z,29.10
2019-01-31T09:13:01.701Z,30.17
2019-01-31T09:15:30.625Z,32.73
2019-01-31T09:17:59.462Z,30.80
2019-01-31T09:21:20.764Z,27.95
2019-01-31T09:24:16.129Z,28.23
2019-01-31T09:27:41.608Z,26.70
2019-01-31T09:30:42.108Z,29.15
2019-01-31T09:34:01.308Z,29.90
2019-01-31T09:37:16.585Z,28.60
2019-01-31T09:40:27.207Z,30.12
2019-01-31T09:43:09.339Z,25.08
2019-01-31T09:46:00.898Z,26.73
2019-01-31T09:48:43.047Z,26.48
2019-01-31T09:51:53.824Z,28.87
2019-01-31T09:54:48.812Z,28.25
2019-01-31T09:57:25.603Z,29.87
2019-01-31T10:00:30.791Z,27.45
2019-01-31T10:03:36.459Z,27.58
2019-01-31T10:06:41.637Z,26.33
2019-01-31T10:09:47.659Z,26.57
2019-01-31T10:12:52.477Z,24.87
2019-01-31T10:15:41.914Z,27.27
2019-01-31T10:18:53.283Z,25.52
2019-01-31T10:22:12.571Z,25.27
2019-01-31T10:25:18.939Z,25.52
2019-01-31T10:28:31.311Z,26.25
2019-01-31T10:31:38.215Z,22.77
2019-01-31T10:34:34.055Z,25.43
2019-01-31T10:37:18.250Z,25.88
2019-01-31T10:40:13.195Z,22.37
2019-01-31T10:43:22.353Z,24.18
2019-01-31T10:46:13.094Z,25.10
2019-01-31T10:49:09.558Z,23.63
2019-01-31T10:52:02.430Z,24.23
2019-01-31T10:55:06.260Z,22.85
2019-01-31T10:58:07.180Z,22.30
2019-01-31T11:01:05.068Z,21.68
2019-01-31T11:03:50.830Z,22.07
2019-01-31T11:06:42.674Z,20.77
2019-01-31T11:09:44.013Z,22.73
2019-01-31T11:12:28.112Z,20.20
2019-01-31T11:15:26.999Z,23.02
2019-01-31T11:18:24.660Z,19.37
2019-01-31T11:21:43.077Z,19.82
2019-01-31T11:24:41.172Z,20.72
2019-01-31T11:28:12.686Z,20.02
2019-01-31T11:31:09.414Z,17.77
2019-01-31T11:34:02.035Z,18.17
2019-01-31T11:36:45.938Z,19.50
2019-01-31T11:39:45.426Z,17.95
2019-01-31T11:42:49.365Z,14.95
2019-01-31T11:45:29.823Z,13.72
2019-01-31T11:48:11.601Z,12.23
2019-01-31T11:51:17.065Z,13.55
2019-01-31T11:54:20.241Z,12.27
2019-01-31T11:57:18.063Z,11.03
2019-01-31T11:59:46.823Z,10.48
2019-01-31T12:02:15.972Z,11.60
2019-01-31T12:04:44.980Z,10.43
2019-01-31T12:07:13.960Z,9.30
2019-01-31T12:09:43.057Z,8.73
2019-01-31T12:12:11.847Z,9.45
2019-01-31T12:14:40.584Z,8.90
2019-01-31T12:17:09.699Z,9.28
2019-01-31T12:19:38.486Z,8.80
2019-01-31T12:22:07.612Z,8.08
2019-01-31T12:24:36.818Z,8.30
2019-01-31T12:27:05.629Z,8.25
2019-01-31T12:29:34.427Z,9.25
2019-01-31T12:32:03.516Z,8.85
2019-01-31T12:34:32.577Z,9.23
2019-01-31T12:37:01.769Z,7.65
2019-01-31T12:39:30.544Z,8.60
2019-01-31T12:41:59.269Z,8.63
2019-01-31T12:44:28.407Z,8.05
2019-01-31T12:46:58.317Z,7.87
2019-01-31T12:49:27.052Z,8.58
2019-01-31T12:51:56.215Z,8.05
2019-01-31T12:54:25.056Z,9.20
2019-01-31T12:56:53.884Z,7.62
2019-01-31T12:59:22.832Z,8.53
2019-01-31T13:01:51.798Z,9.05
2019-01-31T13:04:20.743Z,7.65
2019-01-31T13:06:50.210Z,7.65
2019-01-31T13:09:19.047Z,8.33
2019-01-31T13:11:47.939Z,8.08
2019-01-31T13:14:16.720Z,7.80
2019-01-31T13:16:45.785Z,7.78
2019-01-31T13:19:14.803Z,8.03
2019-01-31T13:21:43.931Z,7.70
2019-01-31T13:24:13.137Z,7.67
2019-01-31T13:26:41.870Z,9.43
2019-01-31T13:29:10.677Z,8.93
2019-01-31T13:31:39.373Z,7.78
2019-01-31T13:34:08.686Z,8.25
2019-01-31T13:36:37.477Z,7.15
2019-01-31T13:39:12.392Z,6.45
2019-01-31T13:41:44.047Z,7.37
2019-01-31T13:44:13.919Z,6.35
2019-01-31T13:46:43.001Z,7.10
2019-01-31T13:49:11.766Z,5.92
2019-01-31T13:51:41.140Z,6.50
2019-01-31T13:54:10.213Z,8.33
2019-01-31T13:56:45.713Z,6.03
2019-01-31T13:59:09.786Z,7.35
2019-01-31T14:01:38.787Z,7.60
2019-01-31T14:04:07.787Z,9.93
2019-01-31T14:06:36.860Z,8.38
2019-01-31T14:09:08.525Z,8.73
2019-01-31T14:11:37.307Z,8.63
2019-01-31T14:14:09.676Z,9.18
2019-01-31T14:16:47.067Z,9.28
2019-01-31T14:19:09.319Z,10.65
2019-01-31T14:21:38.295Z,11.73
2019-01-31T14:24:07.386Z,9.67
2019-01-31T14:26:36.216Z,9.38
2019-01-31T14:29:05.504Z,11.83
2019-01-31T14:31:34.220Z,9.80
2019-01-31T14:34:03.490Z,12.82
2019-01-31T14:36:33.219Z,10.08
2019-01-31T14:39:01.987Z,11.48
2019-01-31T14:41:31.005Z,11.55
2019-01-31T14:44:00.231Z,11.75
2019-01-31T14:46:28.992Z,12.68
2019-01-31T14:48:59.019Z,11.10
2019-01-31T14:51:28.115Z,10.30
2019-01-31T14:53:57.124Z,12.30
2019-01-31T14:56:25.866Z,12.45
2019-01-31T14:58:54.570Z,12.07
2019-01-31T15:01:23.336Z,10.98
2019-01-31T15:03:52.027Z,12.93
2019-01-31T15:06:20.818Z,12.35
2019-01-31T15:08:49.550Z,12.13
2019-01-31T15:11:18.710Z,14.47
2019-01-31T15:13:47.431Z,12.05
2019-01-31T15:16:16.219Z,12.20
2019-01-31T15:18:45.847Z,12.75
2019-01-31T15:21:15.112Z,14.43
2019-01-31T15:23:44.180Z,13.93
2019-01-31T15:26:12.908Z,12.98
2019-01-31T15:28:41.851Z,13.15
2019-01-31T15:31:10.560Z,13.15
2019-01-31T15:33:39.604Z,13.05
2019-01-31T15:36:08.348Z,13.65
2019-01-31T15:38:37.101Z,14.73
2019-01-31T15:41:05.785Z,13.67
2019-01-31T15:43:34.548Z,14.20
2019-01-31T15:46:03.645Z,13.78
2019-01-31T15:48:32.543Z,14.87
2019-01-31T15:51:01.802Z,14.55
2019-01-31T15:53:30.993Z,13.43
2019-01-31T15:56:00.096Z,16.17
2019-01-31T15:58:32.704Z,15.00
2019-01-31T16:01:02.116Z,16.00
2019-01-31T16:03:30.906Z,15.85
2019-01-31T16:06:00.172Z,16.35
2019-01-31T16:08:29.104Z,15.30
2019-01-31T16:10:58.237Z,16.62
2019-01-31T16:13:27.076Z,15.58
2019-01-31T16:15:56.130Z,18.62
2019-01-31T16:18:25.033Z,17.40
2019-01-31T16:20:53.885Z,18.82
2019-01-31T16:23:22.691Z,21.65
2019-01-31T16:25:51.458Z,21.07
2019-01-31T16:28:20.270Z,23.90
2019-01-31T16:30:49.647Z,20.48
2019-01-31T16:33:18.481Z,22.67
2019-01-31T16:35:48.200Z,25.48
2019-01-31T16:38:17.276Z,23.18
2019-01-31T16:40:46.086Z,24.20
2019-01-31T16:43:15.055Z,25.52
2019-01-31T16:45:45.981Z,23.90
2019-01-31T16:48:14.781Z,25.70
2019-01-31T16:50:43.657Z,26.37
2019-01-31T16:53:12.703Z,27.20
2019-01-31T16:55:41.936Z,26.77
2019-01-31T16:58:13.187Z,27.67
2019-01-31T17:00:42.060Z,25.35
2019-01-31T17:03:13.064Z,26.12
2019-01-31T17:05:41.850Z,28.17
2019-01-31T17:08:10.774Z,29.77
2019-01-31T17:10:39.732Z,28.23
2019-01-31T17:13:08.653Z,30.23
2019-01-31T17:15:37.464Z,31.52
2019-01-31T17:18:07.327Z,30.23
2019-01-31T17:20:38.512Z,32.03
2019-01-31T17:23:07.609Z,30.37
2019-01-31T17:25:36.422Z,31.68
2019-01-31T17:28:07.041Z,29.90
2019-01-31T17:30:35.922Z,35.90
2019-01-31T17:33:04.820Z,36.13
2019-01-31T17:35:33.675Z,30.62
2019-01-31T17:38:02.701Z,33.60
2019-01-31T17:40:41.924Z,34.33
2019-01-31T17:43:11.875Z,32.40
2019-01-31T17:45:40.717Z,32.80
2019-01-31T17:48:12.143Z,32.55
2019-01-31T17:50:41.334Z,35.05
2019-01-31T17:53:10.149Z,33.05
2019-01-31T17:55:41.559Z,33.23
2019-01-31T17:58:09.792Z,34.40
2019-01-31T18:00:46.933Z,37.17
2019-01-31T18:03:15.750Z,36.20
2019-01-31T18:05:44.657Z,32.13
2019-01-31T18:08:13.418Z,38.08
2019-01-31T18:10:42.965Z,36.25
2019-01-31T18:13:11.798Z,36.13
2019-01-31T18:15:42.620Z,35.78
2019-01-31T18:18:11.381Z,36.13
2019-01-31T18:20:40.961Z,35.70
2019-01-31T18:23:10.048Z,37.13
2019-01-31T18:25:39.491Z,33.43
2019-01-31T18:28:08.362Z,36.33
2019-01-31T18:30:37.515Z,36.23
2019-01-31T18:33:06.648Z,36.03
2019-01-31T18:35:36.448Z,40.15
2019-01-31T18:38:06.022Z,35.98
2019-01-31T18:40:35.685Z,37.03
2019-01-31T18:43:04.894Z,39.33
2019-01-31T18:45:33.970Z,37.53
2019-01-31T18:48:02.888Z,39.38
2019-01-31T18:50:33.785Z,39.27
2019-01-31T18:53:02.977Z,37.70
2019-01-31T18:55:32.115Z,39.73
2019-01-31T18:58:00.947Z,40.88
2019-01-31T19:00:32.115Z,40.50
2019-01-31T19:03:01.112Z,42.17
2019-01-31T19:05:30.835Z,39.70
2019-01-31T19:07:59.702Z,40.37
2019-01-31T19:10:28.900Z,39.58
2019-01-31T19:12:57.702Z,39.35
2019-01-31T19:15:27.332Z,38.02
2019-01-31T19:18:05.476Z,42.98
2019-01-31T19:20:29.051Z,39.60
2019-01-31T19:22:59.965Z,38.65
2019-01-31T19:25:32.129Z,40.03
2019-01-31T19:28:00.922Z,42.58
2019-01-31T19:30:34.605Z,40.73
2019-01-31T19:33:03.709Z,40.25
2019-01-31T19:35:32.773Z,40.05
2019-01-31T19:38:02.601Z,42.90
2019-01-31T19:40:33.592Z,42.93
2019-01-31T19:43:02.470Z,44.90
2019-01-31T19:45:48.728Z,43.40
2019-01-31T19:48:17.629Z,42.73
2019-01-31T19:50:46.771Z,43.40
2019-01-31T19:53:15.670Z,42.15
2019-01-31T19:55:44.808Z,42.00
2019-01-31T19:58:13.740Z,42.73
2019-01-31T20:00:42.571Z,43.70
2019-01-31T20:03:12.988Z,44.98
2019-01-31T20:05:42.309Z,45.77
2019-01-31T20:08:12.201Z,42.88
2019-01-31T20:10:41.328Z,44.23
2019-01-31T20:13:10.769Z,44.95
2019-01-31T20:15:39.661Z,46.73
2019-01-31T20:18:08.735Z,42.30
2019-01-31T20:20:37.461Z,45.03
2019-01-31T20:23:07.110Z,45.25
2019-01-31T20:25:36.191Z,44.47
2019-01-31T20:28:05.311Z,45.55
2019-01-31T20:30:34.969Z,44.20
2019-01-31T20:33:04.074Z,42.45
2019-01-31T20:35:32.913Z,44.48
2019-01-31T20:38:02.359Z,44.55
2019-01-31T20:40:33.799Z,43.85
2019-01-31T20:43:03.617Z,44.18
2019-01-31T20:45:32.425Z,44.48
2019-01-31T20:48:01.873Z,44.48
2019-01-31T20:50:32.442Z,43.50
2019-01-31T20:53:01.356Z,44.83
2019-01-31T20:55:30.712Z,46.33
2019-01-31T20:57:59.498Z,42.08
2019-01-31T21:00:34.601Z,41.88
2019-01-31T21:03:04.184Z,43.98
2019-01-31T21:05:33.144Z,46.33
2019-01-31T21:08:02.271Z,43.83
2019-01-31T21:10:31.179Z,42.50
2019-01-31T21:13:01.067Z,44.75
2019-01-31T21:15:30.478Z,44.83
2019-01-31T21:18:02.077Z,43.52
2019-01-31T21:20:30.985Z,44.70
2019-01-31T21:23:00.115Z,46.50
2019-01-31T21:25:29.361Z,45.65
2019-01-31T21:27:58.465Z,43.43
2019-01-31T21:30:33.028Z,43.98
2019-01-31T21:33:01.979Z,46.37
2019-01-31T21:35:31.573Z,45.55
2019-01-31T21:38:00.830Z,44.45
2019-01-31T21:40:32.686Z,45.85
2019-01-31T21:43:01.596Z,46.98
2019-01-31T21:45:30.552Z,46.77
2019-01-31T21:48:00.753Z,46.88
2019-01-31T21:50:30.139Z,49.25
2019-01-31T21:52:59.306Z,48.45
2019-01-31T21:55:28.493Z,49.15
2019-01-31T21:57:57.274Z,50.43
2019-01-31T22:00:28.451Z,49.65
2019-01-31T22:02:57.716Z,47.65
2019-01-31T22:05:27.520Z,51.23
2019-01-31T22:07:58.140Z,49.60
2019-01-31T22:10:27.604Z,50.40
2019-01-31T22:12:56.556Z,47.50
2019-01-31T22:15:27.172Z,50.43
2019-01-31T22:17:59.774Z,50.58
2019-01-31T22:20:26.740Z,50.15
2019-01-31T22:22:56.225Z,48.98
2019-01-31T22:25:25.304Z,51.28
2019-01-31T22:27:54.588Z,53.50
2019-01-31T22:30:34.362Z,53.02
2019-01-31T22:33:03.251Z,50.90
2019-01-31T22:35:32.363Z,53.73
2019-01-31T22:38:01.090Z,51.87
2019-01-31T22:40:29.894Z,54.37
2019-01-31T22:43:01.808Z,52.90
2019-01-31T22:45:30.969Z,54.73
2019-01-31T22:47:59.962Z,55.48
2019-01-31T22:50:28.774Z,56.53
2019-01-31T22:52:58.514Z,53.47
2019-01-31T22:55:27.360Z,55.53
2019-01-31T22:57:56.237Z,53.63
2019-01-31T23:01:03.581Z,53.60
2019-01-31T23:03:32.373Z,57.20
2019-01-31T23:06:01.199Z,52.98
2019-01-31T23:08:30.212Z,53.63
2019-01-31T23:10:59.320Z,55.52
2019-01-31T23:13:28.164Z,53.20
2019-01-31T23:15:57.249Z,54.60
2019-01-31T23:18:26.054Z,55.65
2019-01-31T23:20:55.099Z,56.50
2019-01-31T23:23:23.851Z,52.65
2019-01-31T23:25:52.561Z,51.35
2019-01-31T23:28:21.643Z,54.08
2019-01-31T23:30:50.367Z,52.27
2019-01-31T23:33:19.236Z,52.33
2019-01-31T23:35:48.292Z,56.10
2019-01-31T23:38:17.296Z,54.90
2019-01-31T23:40:46.064Z,54.23
2019-01-31T23:43:15.106Z,54.30
2019-01-31T23:45:44.152Z,53.80
2019-01-31T23:48:12.888Z,54.75
2019-01-31T23:50:41.920Z,52.88
2019-01-31T23:53:10.710Z,56.02
2019-01-31T23:55:39.475Z,53.75
2019-01-31T23:58:08.781Z,54.05
